sensor_id;sensor_type;location;lat;lon;timestamp;P1;durP1;ratioP1;P2;durP2;ratioP2
7306;SDS011;3694;48.732;9.248;2023-09-30T00:01:17;3.80;;;2.30;;
7306;SDS011;3694;48.732;9.248;2023-09-30T00:03:43;5.77;;;2.60;;
7306;SDS011;3694;48.732;9.248;2023-09-30T00:06:09;5.60;;;2.47;;
7306;SDS011;3694;48.732;9.248;2023-09-30T00:08:35;6.20;;;2.73;;
7306;SDS011;3694;48.732;9.248;2023-09-30T00:11:01;4.97;;;2.90;;
7306;SDS011;3694;48.732;9.248;2023-09-30T00:13:26;5.23;;;3.17;;
7306;SDS011;3694;48.732;9.248;2023-09-30T00:15:53;5.00;;;2.57;;
7306;SDS011;3694;48.732;9.248;2023-09-30T00:18:19;4.50;;;2.50;;
7306;SDS011;3694;48.732;9.248;2023-09-30T00:20:44;5.07;;;2.70;;
7306;SDS011;3694;48.732;9.248;2023-09-30T00:23:10;4.63;;;3.00;;
7306;SDS011;3694;48.732;9.248;2023-09-30T00:25:36;4.90;;;3.00;;
7306;SDS011;3694;48.732;9.248;2023-09-30T00:28:01;4.87;;;2.80;;
7306;SDS011;3694;48.732;9.248;2023-09-30T00:30:27;4.50;;;2.67;;
7306;SDS011;3694;48.732;9.248;2023-09-30T00:32:52;3.27;;;2.33;;
7306;SDS011;3694;48.732;9.248;2023-09-30T00:35:18;5.73;;;2.87;;
7306;SDS011;3694;48.732;9.248;2023-09-30T00:37:43;4.77;;;2.80;;
7306;SDS011;3694;48.732;9.248;2023-09-30T00:40:09;6.37;;;2.67;;
7306;SDS011;3694;48.732;9.248;2023-09-30T00:42:37;4.13;;;2.43;;
7306;SDS011;3694;48.732;9.248;2023-09-30T00:45:03;4.50;;;3.00;;
7306;SDS011;3694;48.732;9.248;2023-09-30T00:47:30;4.00;;;2.50;;
7306;SDS011;3694;48.732;9.248;2023-09-30T00:49:56;4.77;;;2.53;;
7306;SDS011;3694;48.732;9.248;2023-09-30T00:52:22;4.30;;;2.87;;
7306;SDS011;3694;48.732;9.248;2023-09-30T00:54:48;3.50;;;2.40;;
7306;SDS011;3694;48.732;9.248;2023-09-30T00:57:14;4.33;;;2.53;;
7306;SDS011;3694;48.732;9.248;2023-09-30T00:59:41;4.10;;;3.07;;
7306;SDS011;3694;48.732;9.248;2023-09-30T01:02:07;4.17;;;2.70;;
7306;SDS011;3694;48.732;9.248;2023-09-30T01:04:33;3.90;;;2.50;;
7306;SDS011;3694;48.732;9.248;2023-09-30T01:06:58;6.10;;;2.53;;
7306;SDS011;3694;48.732;9.248;2023-09-30T01:09:24;5.40;;;2.67;;
7306;SDS011;3694;48.732;9.248;2023-09-30T01:11:50;2.40;;;2.17;;
7306;SDS011;3694;48.732;9.248;2023-09-30T01:14:32;3.97;;;2.40;;
7306;SDS011;3694;48.732;9.248;2023-09-30T01:17:07;3.17;;;2.43;;
7306;SDS011;3694;48.732;9.248;2023-09-30T01:19:33;5.07;;;2.30;;
7306;SDS011;3694;48.732;9.248;2023-09-30T01:21:59;3.40;;;2.50;;
7306;SDS011;3694;48.732;9.248;2023-09-30T01:24:27;4.70;;;2.57;;
7306;SDS011;3694;48.732;9.248;2023-09-30T01:26:53;4.70;;;2.40;;
7306;SDS011;3694;48.732;9.248;2023-09-30T01:29:19;3.80;;;2.63;;
7306;SDS011;3694;48.732;9.248;2023-09-30T01:31:45;5.20;;;3.13;;
7306;SDS011;3694;48.732;9.248;2023-09-30T01:34:14;3.70;;;2.27;;
7306;SDS011;3694;48.732;9.248;2023-09-30T01:36:41;4.20;;;2.70;;
7306;SDS011;3694;48.732;9.248;2023-09-30T01:39:08;4.40;;;3.00;;
7306;SDS011;3694;48.732;9.248;2023-09-30T01:41:40;5.00;;;2.87;;
7306;SDS011;3694;48.732;9.248;2023-09-30T01:44:06;3.23;;;2.90;;
7306;SDS011;3694;48.732;9.248;2023-09-30T01:46:32;4.27;;;3.10;;
7306;SDS011;3694;48.732;9.248;2023-09-30T01:48:58;3.33;;;2.10;;
7306;SDS011;3694;48.732;9.248;2023-09-30T01:51:24;3.03;;;2.57;;
7306;SDS011;3694;48.732;9.248;2023-09-30T01:53:49;4.23;;;2.90;;
7306;SDS011;3694;48.732;9.248;2023-09-30T01:56:15;3.13;;;2.40;;
7306;SDS011;3694;48.732;9.248;2023-09-30T01:58:41;3.33;;;3.00;;
7306;SDS011;3694;48.732;9.248;2023-09-30T02:01:06;5.23;;;3.00;;
7306;SDS011;3694;48.732;9.248;2023-09-30T02:03:33;5.27;;;2.87;;
7306;SDS011;3694;48.732;9.248;2023-09-30T02:05:58;3.80;;;3.17;;
7306;SDS011;3694;48.732;9.248;2023-09-30T02:08:24;4.73;;;2.83;;
7306;SDS011;3694;48.732;9.248;2023-09-30T02:10:50;3.33;;;3.03;;
7306;SDS011;3694;48.732;9.248;2023-09-30T02:13:18;4.77;;;3.10;;
7306;SDS011;3694;48.732;9.248;2023-09-30T02:15:45;3.23;;;2.70;;
7306;SDS011;3694;48.732;9.248;2023-09-30T02:18:10;5.10;;;3.20;;
7306;SDS011;3694;48.732;9.248;2023-09-30T02:20:36;4.13;;;2.80;;
7306;SDS011;3694;48.732;9.248;2023-09-30T02:23:05;3.23;;;2.90;;
7306;SDS011;3694;48.732;9.248;2023-09-30T02:25:31;3.90;;;2.90;;
7306;SDS011;3694;48.732;9.248;2023-09-30T02:27:58;6.57;;;3.17;;
7306;SDS011;3694;48.732;9.248;2023-09-30T02:30:24;5.33;;;3.37;;
7306;SDS011;3694;48.732;9.248;2023-09-30T02:32:49;6.60;;;3.70;;
7306;SDS011;3694;48.732;9.248;2023-09-30T02:35:15;5.70;;;3.23;;
7306;SDS011;3694;48.732;9.248;2023-09-30T02:37:41;4.43;;;3.60;;
7306;SDS011;3694;48.732;9.248;2023-09-30T02:40:07;5.40;;;3.43;;
7306;SDS011;3694;48.732;9.248;2023-09-30T02:42:39;5.07;;;3.40;;
7306;SDS011;3694;48.732;9.248;2023-09-30T02:45:05;3.70;;;3.20;;
7306;SDS011;3694;48.732;9.248;2023-09-30T02:47:33;4.40;;;3.47;;
7306;SDS011;3694;48.732;9.248;2023-09-30T02:49:59;5.80;;;3.73;;
7306;SDS011;3694;48.732;9.248;2023-09-30T02:52:25;6.07;;;4.40;;
7306;SDS011;3694;48.732;9.248;2023-09-30T02:54:50;4.67;;;4.13;;
7306;SDS011;3694;48.732;9.248;2023-09-30T02:57:17;6.57;;;4.50;;
7306;SDS011;3694;48.732;9.248;2023-09-30T02:59:43;7.23;;;4.70;;
7306;SDS011;3694;48.732;9.248;2023-09-30T03:02:09;7.27;;;4.57;;
7306;SDS011;3694;48.732;9.248;2023-09-30T03:04:36;8.67;;;5.10;;
7306;SDS011;3694;48.732;9.248;2023-09-30T03:07:02;6.63;;;4.33;;
7306;SDS011;3694;48.732;9.248;2023-09-30T03:09:27;6.50;;;4.37;;
7306;SDS011;3694;48.732;9.248;2023-09-30T03:11:53;6.67;;;4.47;;
7306;SDS011;3694;48.732;9.248;2023-09-30T03:14:21;6.83;;;4.80;;
7306;SDS011;3694;48.732;9.248;2023-09-30T03:16:48;6.23;;;4.60;;
7306;SDS011;3694;48.732;9.248;2023-09-30T03:19:13;5.20;;;4.33;;
7306;SDS011;3694;48.732;9.248;2023-09-30T03:21:41;7.77;;;5.20;;
7306;SDS011;3694;48.732;9.248;2023-09-30T03:24:07;7.63;;;4.50;;
7306;SDS011;3694;48.732;9.248;2023-09-30T03:26:33;7.80;;;5.50;;
7306;SDS011;3694;48.732;9.248;2023-09-30T03:28:59;9.30;;;4.93;;
7306;SDS011;3694;48.732;9.248;2023-09-30T03:31:25;8.43;;;5.17;;
7306;SDS011;3694;48.732;9.248;2023-09-30T03:33:50;5.13;;;4.60;;
7306;SDS011;3694;48.732;9.248;2023-09-30T03:36:19;11.17;;;4.93;;
7306;SDS011;3694;48.732;9.248;2023-09-30T03:38:45;7.83;;;5.13;;
7306;SDS011;3694;48.732;9.248;2023-09-30T03:41:11;7.60;;;4.50;;
7306;SDS011;3694;48.732;9.248;2023-09-30T03:43:38;7.83;;;4.70;;
7306;SDS011;3694;48.732;9.248;2023-09-30T03:46:06;6.07;;;3.97;;
7306;SDS011;3694;48.732;9.248;2023-09-30T03:48:32;7.00;;;4.30;;
7306;SDS011;3694;48.732;9.248;2023-09-30T03:51:10;6.93;;;4.47;;
7306;SDS011;3694;48.732;9.248;2023-09-30T03:53:43;5.37;;;4.30;;
7306;SDS011;3694;48.732;9.248;2023-09-30T03:56:11;4.77;;;3.90;;
7306;SDS011;3694;48.732;9.248;2023-09-30T03:58:37;5.80;;;4.17;;
7306;SDS011;3694;48.732;9.248;2023-09-30T04:01:03;5.17;;;3.83;;
7306;SDS011;3694;48.732;9.248;2023-09-30T04:03:29;5.57;;;4.30;;
7306;SDS011;3694;48.732;9.248;2023-09-30T04:05:58;6.53;;;4.37;;
7306;SDS011;3694;48.732;9.248;2023-09-30T04:08:23;4.97;;;3.57;;
7306;SDS011;3694;48.732;9.248;2023-09-30T04:10:49;7.00;;;3.83;;
7306;SDS011;3694;48.732;9.248;2023-09-30T04:13:14;6.73;;;3.80;;
7306;SDS011;3694;48.732;9.248;2023-09-30T04:15:40;5.47;;;3.87;;
7306;SDS011;3694;48.732;9.248;2023-09-30T04:18:05;6.43;;;4.00;;
7306;SDS011;3694;48.732;9.248;2023-09-30T04:20:31;5.77;;;4.23;;
7306;SDS011;3694;48.732;9.248;2023-09-30T04:22:57;5.00;;;4.10;;
7306;SDS011;3694;48.732;9.248;2023-09-30T04:25:23;5.40;;;4.00;;
7306;SDS011;3694;48.732;9.248;2023-09-30T04:27:52;5.90;;;4.10;;
7306;SDS011;3694;48.732;9.248;2023-09-30T04:30:18;8.97;;;4.43;;
7306;SDS011;3694;48.732;9.248;2023-09-30T04:32:44;7.10;;;4.27;;
7306;SDS011;3694;48.732;9.248;2023-09-30T04:35:10;5.67;;;4.17;;
7306;SDS011;3694;48.732;9.248;2023-09-30T04:37:36;4.50;;;3.93;;
7306;SDS011;3694;48.732;9.248;2023-09-30T04:40:06;6.57;;;4.37;;
7306;SDS011;3694;48.732;9.248;2023-09-30T04:42:44;6.87;;;4.90;;
7306;SDS011;3694;48.732;9.248;2023-09-30T04:45:12;6.27;;;4.70;;
7306;SDS011;3694;48.732;9.248;2023-09-30T04:47:38;6.73;;;4.93;;
7306;SDS011;3694;48.732;9.248;2023-09-30T04:50:07;5.90;;;4.47;;
7306;SDS011;3694;48.732;9.248;2023-09-30T04:52:34;6.90;;;4.47;;
7306;SDS011;3694;48.732;9.248;2023-09-30T04:55:00;7.27;;;4.30;;
7306;SDS011;3694;48.732;9.248;2023-09-30T04:57:26;6.80;;;5.07;;
7306;SDS011;3694;48.732;9.248;2023-09-30T04:59:52;7.23;;;4.87;;
7306;SDS011;3694;48.732;9.248;2023-09-30T05:02:18;6.23;;;5.00;;
7306;SDS011;3694;48.732;9.248;2023-09-30T05:04:43;6.97;;;4.73;;
7306;SDS011;3694;48.732;9.248;2023-09-30T05:07:09;8.10;;;5.20;;
7306;SDS011;3694;48.732;9.248;2023-09-30T05:09:35;7.07;;;5.30;;
7306;SDS011;3694;48.732;9.248;2023-09-30T05:12:01;6.07;;;4.13;;
7306;SDS011;3694;48.732;9.248;2023-09-30T05:14:28;7.17;;;4.57;;
7306;SDS011;3694;48.732;9.248;2023-09-30T05:16:54;6.37;;;4.50;;
7306;SDS011;3694;48.732;9.248;2023-09-30T05:19:21;5.77;;;4.30;;
7306;SDS011;3694;48.732;9.248;2023-09-30T05:21:47;7.70;;;5.10;;
7306;SDS011;3694;48.732;9.248;2023-09-30T05:24:12;9.40;;;5.40;;
7306;SDS011;3694;48.732;9.248;2023-09-30T05:26:38;9.00;;;5.37;;
7306;SDS011;3694;48.732;9.248;2023-09-30T05:29:03;7.30;;;5.30;;
7306;SDS011;3694;48.732;9.248;2023-09-30T05:31:30;6.33;;;4.80;;
7306;SDS011;3694;48.732;9.248;2023-09-30T05:33:55;6.53;;;4.83;;
7306;SDS011;3694;48.732;9.248;2023-09-30T05:36:22;6.87;;;5.13;;
7306;SDS011;3694;48.732;9.248;2023-09-30T05:38:47;8.60;;;5.07;;
7306;SDS011;3694;48.732;9.248;2023-09-30T05:41:16;6.40;;;4.20;;
7306;SDS011;3694;48.732;9.248;2023-09-30T05:43:42;9.00;;;5.20;;
7306;SDS011;3694;48.732;9.248;2023-09-30T05:46:08;7.40;;;4.90;;
7306;SDS011;3694;48.732;9.248;2023-09-30T05:48:34;7.27;;;4.33;;
7306;SDS011;3694;48.732;9.248;2023-09-30T05:51:00;7.37;;;4.97;;
7306;SDS011;3694;48.732;9.248;2023-09-30T05:53:26;6.33;;;4.70;;
7306;SDS011;3694;48.732;9.248;2023-09-30T05:55:52;6.20;;;4.47;;
7306;SDS011;3694;48.732;9.248;2023-09-30T05:58:18;6.23;;;4.80;;
7306;SDS011;3694;48.732;9.248;2023-09-30T06:00:44;6.40;;;5.13;;
7306;SDS011;3694;48.732;9.248;2023-09-30T06:03:10;6.00;;;4.63;;
7306;SDS011;3694;48.732;9.248;2023-09-30T06:05:39;6.77;;;5.00;;
7306;SDS011;3694;48.732;9.248;2023-09-30T06:08:07;7.20;;;5.43;;
7306;SDS011;3694;48.732;9.248;2023-09-30T06:10:35;5.83;;;5.07;;
7306;SDS011;3694;48.732;9.248;2023-09-30T06:13:03;5.27;;;4.77;;
7306;SDS011;3694;48.732;9.248;2023-09-30T06:15:29;6.77;;;5.47;;
7306;SDS011;3694;48.732;9.248;2023-09-30T06:17:55;7.20;;;4.93;;
7306;SDS011;3694;48.732;9.248;2023-09-30T06:20:21;6.20;;;5.03;;
7306;SDS011;3694;48.732;9.248;2023-09-30T06:22:47;7.73;;;5.07;;
7306;SDS011;3694;48.732;9.248;2023-09-30T06:25:19;7.57;;;5.03;;
7306;SDS011;3694;48.732;9.248;2023-09-30T06:27:47;7.60;;;4.90;;
7306;SDS011;3694;48.732;9.248;2023-09-30T06:30:13;5.60;;;4.63;;
7306;SDS011;3694;48.732;9.248;2023-09-30T06:32:44;6.40;;;5.27;;
7306;SDS011;3694;48.732;9.248;2023-09-30T06:35:10;7.17;;;5.07;;
7306;SDS011;3694;48.732;9.248;2023-09-30T06:37:39;5.30;;;4.57;;
7306;SDS011;3694;48.732;9.248;2023-09-30T06:40:06;7.07;;;3.90;;
7306;SDS011;3694;48.732;9.248;2023-09-30T06:42:35;4.83;;;3.67;;
7306;SDS011;3694;48.732;9.248;2023-09-30T06:45:02;4.03;;;3.57;;
7306;SDS011;3694;48.732;9.248;2023-09-30T06:47:34;3.73;;;3.27;;
7306;SDS011;3694;48.732;9.248;2023-09-30T06:50:04;4.60;;;3.57;;
7306;SDS011;3694;48.732;9.248;2023-09-30T06:52:37;4.43;;;3.40;;
7306;SDS011;3694;48.732;9.248;2023-09-30T06:55:04;4.43;;;3.30;;
7306;SDS011;3694;48.732;9.248;2023-09-30T06:57:34;6.57;;;3.40;;
7306;SDS011;3694;48.732;9.248;2023-09-30T07:00:00;5.20;;;3.20;;
7306;SDS011;3694;48.732;9.248;2023-09-30T07:02:37;5.67;;;3.53;;
7306;SDS011;3694;48.732;9.248;2023-09-30T07:05:05;5.93;;;3.10;;
7306;SDS011;3694;48.732;9.248;2023-09-30T07:07:34;6.63;;;3.03;;
7306;SDS011;3694;48.732;9.248;2023-09-30T07:10:00;3.83;;;2.83;;
7306;SDS011;3694;48.732;9.248;2023-09-30T07:12:26;3.47;;;2.60;;
7306;SDS011;3694;48.732;9.248;2023-09-30T07:14:52;3.47;;;3.17;;
7306;SDS011;3694;48.732;9.248;2023-09-30T07:17:18;5.57;;;3.50;;
7306;SDS011;3694;48.732;9.248;2023-09-30T07:19:44;3.27;;;2.63;;
7306;SDS011;3694;48.732;9.248;2023-09-30T07:22:10;3.80;;;3.03;;
7306;SDS011;3694;48.732;9.248;2023-09-30T07:24:35;4.73;;;3.00;;
7306;SDS011;3694;48.732;9.248;2023-09-30T07:27:01;2.80;;;2.60;;
7306;SDS011;3694;48.732;9.248;2023-09-30T07:29:27;5.23;;;2.80;;
7306;SDS011;3694;48.732;9.248;2023-09-30T07:31:55;3.93;;;2.80;;
7306;SDS011;3694;48.732;9.248;2023-09-30T07:34:20;6.03;;;2.90;;
7306;SDS011;3694;48.732;9.248;2023-09-30T07:36:46;3.47;;;2.50;;
7306;SDS011;3694;48.732;9.248;2023-09-30T07:39:11;3.00;;;2.50;;
7306;SDS011;3694;48.732;9.248;2023-09-30T07:41:37;4.23;;;3.07;;
7306;SDS011;3694;48.732;9.248;2023-09-30T07:44:03;7.57;;;3.40;;
7306;SDS011;3694;48.732;9.248;2023-09-30T07:46:30;4.17;;;3.17;;
7306;SDS011;3694;48.732;9.248;2023-09-30T07:48:55;5.50;;;3.33;;
7306;SDS011;3694;48.732;9.248;2023-09-30T07:51:21;5.27;;;3.70;;
7306;SDS011;3694;48.732;9.248;2023-09-30T07:53:47;4.43;;;3.60;;
7306;SDS011;3694;48.732;9.248;2023-09-30T07:56:13;4.20;;;3.67;;
7306;SDS011;3694;48.732;9.248;2023-09-30T07:58:39;4.47;;;3.10;;
7306;SDS011;3694;48.732;9.248;2023-09-30T08:01:04;4.03;;;3.30;;
7306;SDS011;3694;48.732;9.248;2023-09-30T08:03:30;4.50;;;3.23;;
7306;SDS011;3694;48.732;9.248;2023-09-30T08:05:56;5.90;;;3.50;;
7306;SDS011;3694;48.732;9.248;2023-09-30T08:08:23;5.43;;;3.40;;
7306;SDS011;3694;48.732;9.248;2023-09-30T08:10:49;5.13;;;3.33;;
7306;SDS011;3694;48.732;9.248;2023-09-30T08:13:15;4.97;;;3.50;;
7306;SDS011;3694;48.732;9.248;2023-09-30T08:15:42;3.63;;;3.03;;
7306;SDS011;3694;48.732;9.248;2023-09-30T08:18:07;5.10;;;3.40;;
7306;SDS011;3694;48.732;9.248;2023-09-30T08:20:33;3.87;;;3.30;;
7306;SDS011;3694;48.732;9.248;2023-09-30T08:22:59;6.60;;;3.70;;
7306;SDS011;3694;48.732;9.248;2023-09-30T08:25:24;4.10;;;2.87;;
7306;SDS011;3694;48.732;9.248;2023-09-30T08:27:50;4.93;;;3.40;;
7306;SDS011;3694;48.732;9.248;2023-09-30T08:30:16;6.27;;;3.57;;
7306;SDS011;3694;48.732;9.248;2023-09-30T08:32:42;4.33;;;3.17;;
7306;SDS011;3694;48.732;9.248;2023-09-30T08:35:08;5.37;;;3.87;;
7306;SDS011;3694;48.732;9.248;2023-09-30T08:37:34;4.10;;;2.80;;
7306;SDS011;3694;48.732;9.248;2023-09-30T08:40:00;5.13;;;3.53;;
7306;SDS011;3694;48.732;9.248;2023-09-30T08:42:26;6.00;;;3.40;;
7306;SDS011;3694;48.732;9.248;2023-09-30T08:44:57;4.00;;;3.00;;
7306;SDS011;3694;48.732;9.248;2023-09-30T08:47:25;6.23;;;3.47;;
7306;SDS011;3694;48.732;9.248;2023-09-30T08:49:52;5.07;;;3.27;;
7306;SDS011;3694;48.732;9.248;2023-09-30T08:52:22;4.37;;;3.37;;
7306;SDS011;3694;48.732;9.248;2023-09-30T08:54:48;4.70;;;3.33;;
7306;SDS011;3694;48.732;9.248;2023-09-30T08:57:13;4.13;;;3.10;;
7306;SDS011;3694;48.732;9.248;2023-09-30T08:59:42;6.93;;;3.37;;
7306;SDS011;3694;48.732;9.248;2023-09-30T09:02:09;5.07;;;3.23;;
7306;SDS011;3694;48.732;9.248;2023-09-30T09:04:36;4.27;;;3.30;;
7306;SDS011;3694;48.732;9.248;2023-09-30T09:07:02;4.47;;;3.50;;
7306;SDS011;3694;48.732;9.248;2023-09-30T09:09:28;5.10;;;3.37;;
7306;SDS011;3694;48.732;9.248;2023-09-30T09:11:53;4.37;;;3.47;;
7306;SDS011;3694;48.732;9.248;2023-09-30T09:14:19;6.50;;;3.50;;
7306;SDS011;3694;48.732;9.248;2023-09-30T09:17:01;4.93;;;3.53;;
7306;SDS011;3694;48.732;9.248;2023-09-30T09:19:26;5.33;;;3.50;;
7306;SDS011;3694;48.732;9.248;2023-09-30T09:21:56;3.70;;;3.40;;
7306;SDS011;3694;48.732;9.248;2023-09-30T09:24:33;4.00;;;3.07;;
7306;SDS011;3694;48.732;9.248;2023-09-30T09:27:04;5.00;;;3.20;;
7306;SDS011;3694;48.732;9.248;2023-09-30T09:29:31;4.67;;;3.40;;
7306;SDS011;3694;48.732;9.248;2023-09-30T09:34:40;4.77;;;3.20;;
7306;SDS011;3694;48.732;9.248;2023-09-30T09:37:13;5.03;;;3.73;;
7306;SDS011;3694;48.732;9.248;2023-09-30T09:39:40;7.93;;;3.80;;
7306;SDS011;3694;48.732;9.248;2023-09-30T09:42:05;5.40;;;3.80;;
7306;SDS011;3694;48.732;9.248;2023-09-30T09:44:31;4.77;;;3.40;;
7306;SDS011;3694;48.732;9.248;2023-09-30T09:47:01;6.17;;;4.00;;
7306;SDS011;3694;48.732;9.248;2023-09-30T09:49:30;4.70;;;3.87;;
7306;SDS011;3694;48.732;9.248;2023-09-30T09:51:57;5.53;;;3.40;;
7306;SDS011;3694;48.732;9.248;2023-09-30T09:54:25;5.73;;;3.23;;
7306;SDS011;3694;48.732;9.248;2023-09-30T09:56:52;6.67;;;3.80;;
7306;SDS011;3694;48.732;9.248;2023-09-30T09:59:21;4.83;;;3.53;;
7306;SDS011;3694;48.732;9.248;2023-09-30T10:01:48;3.67;;;3.27;;
7306;SDS011;3694;48.732;9.248;2023-09-30T10:04:14;5.47;;;3.37;;
7306;SDS011;3694;48.732;9.248;2023-09-30T10:06:40;4.50;;;3.07;;
7306;SDS011;3694;48.732;9.248;2023-09-30T10:09:10;3.70;;;3.30;;
7306;SDS011;3694;48.732;9.248;2023-09-30T10:11:39;5.13;;;3.20;;
7306;SDS011;3694;48.732;9.248;2023-09-30T10:14:07;5.43;;;3.10;;
7306;SDS011;3694;48.732;9.248;2023-09-30T10:19:08;4.40;;;3.03;;
7306;SDS011;3694;48.732;9.248;2023-09-30T10:21:37;5.23;;;3.03;;
7306;SDS011;3694;48.732;9.248;2023-09-30T10:27:33;6.97;;;3.50;;
7306;SDS011;3694;48.732;9.248;2023-09-30T10:40:46;5.00;;;3.03;;
7306;SDS011;3694;48.732;9.248;2023-09-30T10:45:57;4.70;;;3.00;;
7306;SDS011;3694;48.732;9.248;2023-09-30T10:50:58;5.37;;;3.40;;
7306;SDS011;3694;48.732;9.248;2023-09-30T10:53:25;4.70;;;3.30;;
7306;SDS011;3694;48.732;9.248;2023-09-30T10:55:56;4.70;;;3.23;;
7306;SDS011;3694;48.732;9.248;2023-09-30T10:58:39;5.33;;;3.60;;
7306;SDS011;3694;48.732;9.248;2023-09-30T11:01:05;4.50;;;3.30;;
7306;SDS011;3694;48.732;9.248;2023-09-30T11:03:30;4.67;;;3.07;;
7306;SDS011;3694;48.732;9.248;2023-09-30T11:05:56;4.73;;;3.00;;
7306;SDS011;3694;48.732;9.248;2023-09-30T11:08:22;5.60;;;3.40;;
7306;SDS011;3694;48.732;9.248;2023-09-30T11:10:51;4.87;;;3.30;;
7306;SDS011;3694;48.732;9.248;2023-09-30T11:13:19;6.43;;;3.43;;
7306;SDS011;3694;48.732;9.248;2023-09-30T11:15:45;4.93;;;3.27;;
7306;SDS011;3694;48.732;9.248;2023-09-30T11:18:15;5.10;;;3.20;;
7306;SDS011;3694;48.732;9.248;2023-09-30T11:20:42;5.23;;;2.97;;
7306;SDS011;3694;48.732;9.248;2023-09-30T11:23:09;5.70;;;3.20;;
7306;SDS011;3694;48.732;9.248;2023-09-30T11:25:36;5.73;;;3.60;;
7306;SDS011;3694;48.732;9.248;2023-09-30T11:28:14;5.07;;;3.30;;
7306;SDS011;3694;48.732;9.248;2023-09-30T11:30:56;5.00;;;3.40;;
7306;SDS011;3694;48.732;9.248;2023-09-30T11:33:27;4.93;;;3.13;;
7306;SDS011;3694;48.732;9.248;2023-09-30T11:38:29;7.27;;;3.77;;
7306;SDS011;3694;48.732;9.248;2023-09-30T11:41:02;5.57;;;3.40;;
7306;SDS011;3694;48.732;9.248;2023-09-30T11:43:30;6.67;;;3.47;;
7306;SDS011;3694;48.732;9.248;2023-09-30T11:46:09;4.47;;;3.03;;
7306;SDS011;3694;48.732;9.248;2023-09-30T11:48:36;5.60;;;3.70;;
7306;SDS011;3694;48.732;9.248;2023-09-30T11:51:02;4.70;;;3.10;;
7306;SDS011;3694;48.732;9.248;2023-09-30T11:53:29;5.33;;;3.20;;
7306;SDS011;3694;48.732;9.248;2023-09-30T11:55:56;4.47;;;3.37;;
7306;SDS011;3694;48.732;9.248;2023-09-30T11:58:27;4.83;;;3.43;;
7306;SDS011;3694;48.732;9.248;2023-09-30T12:01:00;5.07;;;3.53;;
7306;SDS011;3694;48.732;9.248;2023-09-30T12:03:26;4.90;;;3.47;;
7306;SDS011;3694;48.732;9.248;2023-09-30T12:05:55;4.70;;;3.10;;
7306;SDS011;3694;48.732;9.248;2023-09-30T12:08:21;4.87;;;3.13;;
7306;SDS011;3694;48.732;9.248;2023-09-30T12:10:47;5.13;;;3.57;;
7306;SDS011;3694;48.732;9.248;2023-09-30T12:13:13;5.27;;;3.57;;
7306;SDS011;3694;48.732;9.248;2023-09-30T12:15:40;6.27;;;3.13;;
7306;SDS011;3694;48.732;9.248;2023-09-30T12:18:06;6.20;;;3.93;;
7306;SDS011;3694;48.732;9.248;2023-09-30T12:20:31;6.57;;;3.83;;
7306;SDS011;3694;48.732;9.248;2023-09-30T12:22:58;5.03;;;3.27;;
7306;SDS011;3694;48.732;9.248;2023-09-30T12:25:24;5.33;;;3.70;;
7306;SDS011;3694;48.732;9.248;2023-09-30T12:27:50;5.60;;;3.80;;
7306;SDS011;3694;48.732;9.248;2023-09-30T12:30:16;7.73;;;3.83;;
7306;SDS011;3694;48.732;9.248;2023-09-30T12:32:45;5.20;;;3.30;;
7306;SDS011;3694;48.732;9.248;2023-09-30T12:35:10;7.23;;;3.93;;
7306;SDS011;3694;48.732;9.248;2023-09-30T12:37:37;5.77;;;3.60;;
7306;SDS011;3694;48.732;9.248;2023-09-30T12:40:04;5.93;;;3.80;;
7306;SDS011;3694;48.732;9.248;2023-09-30T12:42:31;6.17;;;3.83;;
7306;SDS011;3694;48.732;9.248;2023-09-30T12:44:59;6.03;;;3.50;;
7306;SDS011;3694;48.732;9.248;2023-09-30T12:47:26;7.20;;;3.57;;
7306;SDS011;3694;48.732;9.248;2023-09-30T12:49:51;5.40;;;3.50;;
7306;SDS011;3694;48.732;9.248;2023-09-30T12:52:19;4.67;;;3.27;;
7306;SDS011;3694;48.732;9.248;2023-09-30T12:54:45;6.33;;;3.50;;
7306;SDS011;3694;48.732;9.248;2023-09-30T12:57:11;6.33;;;3.43;;
7306;SDS011;3694;48.732;9.248;2023-09-30T12:59:38;5.87;;;3.60;;
7306;SDS011;3694;48.732;9.248;2023-09-30T13:02:04;6.90;;;3.50;;
7306;SDS011;3694;48.732;9.248;2023-09-30T13:04:30;6.60;;;3.30;;
7306;SDS011;3694;48.732;9.248;2023-09-30T13:06:56;5.93;;;3.53;;
7306;SDS011;3694;48.732;9.248;2023-09-30T13:09:22;5.53;;;3.27;;
7306;SDS011;3694;48.732;9.248;2023-09-30T13:11:47;5.93;;;3.53;;
7306;SDS011;3694;48.732;9.248;2023-09-30T13:14:14;6.50;;;3.70;;
7306;SDS011;3694;48.732;9.248;2023-09-30T13:16:39;5.40;;;3.50;;
7306;SDS011;3694;48.732;9.248;2023-09-30T13:19:05;5.27;;;3.30;;
7306;SDS011;3694;48.732;9.248;2023-09-30T13:21:30;5.77;;;3.40;;
7306;SDS011;3694;48.732;9.248;2023-09-30T13:23:56;5.07;;;3.13;;
7306;SDS011;3694;48.732;9.248;2023-09-30T13:26:21;5.80;;;3.00;;
7306;SDS011;3694;48.732;9.248;2023-09-30T13:28:47;6.10;;;3.60;;
7306;SDS011;3694;48.732;9.248;2023-09-30T13:31:12;7.57;;;4.20;;
7306;SDS011;3694;48.732;9.248;2023-09-30T13:33:38;6.93;;;3.80;;
7306;SDS011;3694;48.732;9.248;2023-09-30T13:36:04;6.37;;;3.63;;
7306;SDS011;3694;48.732;9.248;2023-09-30T13:38:30;7.13;;;3.80;;
7306;SDS011;3694;48.732;9.248;2023-09-30T13:40:55;6.73;;;3.90;;
7306;SDS011;3694;48.732;9.248;2023-09-30T13:43:21;6.87;;;3.33;;
7306;SDS011;3694;48.732;9.248;2023-09-30T13:45:46;4.23;;;3.30;;
7306;SDS011;3694;48.732;9.248;2023-09-30T13:48:13;5.40;;;3.60;;
7306;SDS011;3694;48.732;9.248;2023-09-30T13:50:39;5.30;;;3.33;;
7306;SDS011;3694;48.732;9.248;2023-09-30T13:53:04;5.17;;;3.47;;
7306;SDS011;3694;48.732;9.248;2023-09-30T13:55:30;5.07;;;3.53;;
7306;SDS011;3694;48.732;9.248;2023-09-30T13:57:56;5.03;;;3.20;;
7306;SDS011;3694;48.732;9.248;2023-09-30T14:00:23;7.77;;;3.50;;
7306;SDS011;3694;48.732;9.248;2023-09-30T14:02:48;5.50;;;3.53;;
7306;SDS011;3694;48.732;9.248;2023-09-30T14:05:15;5.77;;;3.37;;
7306;SDS011;3694;48.732;9.248;2023-09-30T14:07:41;5.23;;;3.47;;
7306;SDS011;3694;48.732;9.248;2023-09-30T14:10:08;7.33;;;3.80;;
7306;SDS011;3694;48.732;9.248;2023-09-30T14:12:35;5.17;;;3.67;;
7306;SDS011;3694;48.732;9.248;2023-09-30T14:15:01;6.47;;;4.00;;
7306;SDS011;3694;48.732;9.248;2023-09-30T14:17:26;5.80;;;3.90;;
7306;SDS011;3694;48.732;9.248;2023-09-30T14:19:53;5.23;;;3.60;;
7306;SDS011;3694;48.732;9.248;2023-09-30T14:22:18;7.30;;;3.43;;
7306;SDS011;3694;48.732;9.248;2023-09-30T14:24:44;6.13;;;3.63;;
7306;SDS011;3694;48.732;9.248;2023-09-30T14:27:10;6.50;;;3.40;;
7306;SDS011;3694;48.732;9.248;2023-09-30T14:29:36;5.37;;;3.50;;
7306;SDS011;3694;48.732;9.248;2023-09-30T14:32:01;7.93;;;3.50;;
7306;SDS011;3694;48.732;9.248;2023-09-30T14:34:27;8.60;;;3.93;;
7306;SDS011;3694;48.732;9.248;2023-09-30T14:36:53;6.17;;;3.47;;
7306;SDS011;3694;48.732;9.248;2023-09-30T14:39:18;6.97;;;3.83;;
7306;SDS011;3694;48.732;9.248;2023-09-30T14:41:45;7.00;;;4.30;;
7306;SDS011;3694;48.732;9.248;2023-09-30T14:44:11;6.20;;;3.77;;
7306;SDS011;3694;48.732;9.248;2023-09-30T14:46:39;5.97;;;3.90;;
7306;SDS011;3694;48.732;9.248;2023-09-30T14:49:05;6.83;;;4.30;;
7306;SDS011;3694;48.732;9.248;2023-09-30T14:51:31;7.57;;;3.87;;
7306;SDS011;3694;48.732;9.248;2023-09-30T14:53:57;8.00;;;3.80;;
7306;SDS011;3694;48.732;9.248;2023-09-30T14:56:23;7.03;;;3.60;;
7306;SDS011;3694;48.732;9.248;2023-09-30T14:58:48;5.90;;;3.73;;
7306;SDS011;3694;48.732;9.248;2023-09-30T15:01:14;6.27;;;3.40;;
7306;SDS011;3694;48.732;9.248;2023-09-30T15:03:40;7.23;;;3.50;;
7306;SDS011;3694;48.732;9.248;2023-09-30T15:06:05;6.57;;;3.53;;
7306;SDS011;3694;48.732;9.248;2023-09-30T15:08:31;5.77;;;2.97;;
7306;SDS011;3694;48.732;9.248;2023-09-30T15:11:01;7.03;;;4.17;;
7306;SDS011;3694;48.732;9.248;2023-09-30T15:13:27;5.20;;;3.37;;
7306;SDS011;3694;48.732;9.248;2023-09-30T15:15:53;7.20;;;3.73;;
7306;SDS011;3694;48.732;9.248;2023-09-30T15:18:19;5.73;;;3.20;;
7306;SDS011;3694;48.732;9.248;2023-09-30T15:20:45;6.27;;;3.67;;
7306;SDS011;3694;48.732;9.248;2023-09-30T15:23:12;7.43;;;4.43;;
7306;SDS011;3694;48.732;9.248;2023-09-30T15:25:41;5.73;;;3.30;;
7306;SDS011;3694;48.732;9.248;2023-09-30T15:28:08;7.30;;;3.13;;
7306;SDS011;3694;48.732;9.248;2023-09-30T15:30:34;7.60;;;3.90;;
7306;SDS011;3694;48.732;9.248;2023-09-30T15:33:00;4.93;;;3.70;;
7306;SDS011;3694;48.732;9.248;2023-09-30T15:35:27;7.27;;;3.50;;
7306;SDS011;3694;48.732;9.248;2023-09-30T15:37:52;7.70;;;3.87;;
7306;SDS011;3694;48.732;9.248;2023-09-30T15:40:18;5.47;;;3.67;;